createdAt,value
2022-08-21T00:01:53.733Z,97245.13
2022-08-21T00:04:22.759Z,97246.63
2022-08-21T00:06:58.248Z,97249.86
2022-08-21T00:09:26.188Z,97248.61
2022-08-21T00:11:54.198Z,97244.91
2022-08-21T00:14:22.351Z,97246.20
2022-08-21T00:16:50.332Z,97243.34
2022-08-21T00:19:18.149Z,97240.21
2022-08-21T00:21:46.578Z,97240.17
2022-08-21T00:24:14.478Z,97239.04
2022-08-21T00:26:44.758Z,97240.27
2022-08-21T00:29:13.023Z,97239.71
2022-08-21T00:31:42.100Z,97241.67
2022-08-21T00:34:10.700Z,97246.45
2022-08-21T00:36:38.768Z,97247.02
2022-08-21T00:39:08.291Z,97253.89
2022-08-21T00:41:39.022Z,97253.18
2022-08-21T00:44:08.644Z,97260.02
2022-08-21T00:46:37.457Z,97262.50
2022-08-21T00:49:07.081Z,97262.30
2022-08-21T00:51:38.286Z,97261.55
2022-08-21T00:54:15.039Z,97254.25
2022-08-21T00:56:50.034Z,97248.89
2022-08-21T00:59:20.299Z,97243.21
2022-08-21T01:01:49.291Z,97235.81
2022-08-21T01:04:17.684Z,97234.65
2022-08-21T01:06:46.011Z,97227.31
2022-08-21T01:09:14.619Z,97224.19
2022-08-21T01:11:45.857Z,97214.59
2022-08-21T01:14:14.359Z,97204.83
2022-08-21T01:16:45.055Z,97200.97
2022-08-21T01:19:13.880Z,97201.50
2022-08-21T01:21:42.007Z,97206.25
2022-08-21T01:24:12.643Z,97215.56
2022-08-21T01:26:41.150Z,97222.56
2022-08-21T01:29:09.052Z,97234.60
2022-08-21T01:31:38.091Z,97234.59
2022-08-21T01:34:06.239Z,97235.23
2022-08-21T01:36:34.855Z,97229.86
2022-08-21T01:39:04.363Z,97230.19
2022-08-21T01:41:32.155Z,97236.77
2022-08-21T01:44:00.103Z,97245.58
2022-08-21T01:46:28.302Z,97243.60
2022-08-21T01:48:56.294Z,97236.02
2022-08-21T01:51:24.151Z,97227.23
2022-08-21T01:53:51.986Z,97227.60
2022-08-21T01:56:19.891Z,97232.67
2022-08-21T01:58:48.850Z,97243.64
2022-08-21T02:01:17.061Z,97256.46
2022-08-21T02:03:45.208Z,97251.98
2022-08-21T02:06:14.879Z,97253.67
2022-08-21T02:08:42.693Z,97250.16
2022-08-21T02:11:10.476Z,97242.95
2022-08-21T02:13:38.338Z,97233.89
2022-08-21T02:16:07.873Z,97226.45
2022-08-21T02:18:36.012Z,97228.14
2022-08-21T02:21:04.929Z,97229.59
2022-08-21T02:23:33.219Z,97227.85
2022-08-21T02:26:02.758Z,97230.11
2022-08-21T02:28:32.385Z,97230.27
2022-08-21T02:31:00.396Z,97228.82
2022-08-21T02:33:29.082Z,97232.63
2022-08-21T02:35:57.612Z,97235.59
2022-08-21T02:38:27.517Z,97238.02
2022-08-21T02:40:56.199Z,97241.05
2022-08-21T02:43:25.423Z,97242.20
2022-08-21T02:45:53.898Z,97245.44
2022-08-21T02:48:24.081Z,97252.77
2022-08-21T02:50:56.805Z,97255.39
2022-08-21T02:53:24.881Z,97263.40
2022-08-21T02:55:53.620Z,97270.52
2022-08-21T02:58:24.319Z,97268.83
2022-08-21T03:00:52.942Z,97269.18
2022-08-21T03:03:22.225Z,97266.90
2022-08-21T03:05:50.895Z,97265.35
2022-08-21T03:08:19.555Z,97263.73
2022-08-21T03:10:48.619Z,97270.13
2022-08-21T03:13:16.881Z,97269.21
2022-08-21T03:15:44.983Z,97269.93
2022-08-21T03:18:13.330Z,97260.90
2022-08-21T03:20:42.510Z,97259.27
2022-08-21T03:23:14.262Z,97253.40
2022-08-21T03:25:45.731Z,97249.02
2022-08-21T03:28:15.980Z,97239.14
2022-08-21T03:30:45.463Z,97231.32
2022-08-21T03:33:15.136Z,97228.41
2022-08-21T03:35:44.785Z,97224.33
2022-08-21T03:38:14.138Z,97223.91
2022-08-21T03:40:45.096Z,97229.95
2022-08-21T03:43:13.226Z,97234.90
2022-08-21T03:45:41.342Z,97233.96
2022-08-21T03:48:10.250Z,97236.71
2022-08-21T03:50:40.659Z,97238.45
2022-08-21T03:53:15.725Z,97231.73
2022-08-21T03:55:47.533Z,97219.59
2022-08-21T03:58:17.684Z,97211.70
2022-08-21T04:00:49.960Z,97211.15
2022-08-21T04:03:18.255Z,97217.41
2022-08-21T04:05:47.014Z,97219.55
2022-08-21T04:08:15.949Z,97220.77
2022-08-21T04:10:45.018Z,97223.63
2022-08-21T04:13:12.739Z,97225.05
2022-08-21T04:15:41.853Z,97223.83
2022-08-21T04:18:09.952Z,97219.13
2022-08-21T04:20:38.425Z,97218.22
2022-08-21T04:23:07.543Z,97221.77
2022-08-21T04:25:35.511Z,97225.31
2022-08-21T04:28:03.757Z,97228.15
2022-08-21T04:30:33.381Z,97228.80
2022-08-21T04:33:01.276Z,97222.03
2022-08-21T04:35:29.691Z,97214.86
2022-08-21T04:37:57.916Z,97214.70
2022-08-21T04:40:27.275Z,97216.75
2022-08-21T04:42:57.621Z,97222.38
2022-08-21T04:45:30.424Z,97223.87
2022-08-21T04:47:59.823Z,97225.54
2022-08-21T04:50:32.787Z,97230.63
2022-08-21T04:53:07.816Z,97236.27
2022-08-21T04:55:36.096Z,97236.11
2022-08-21T04:58:03.961Z,97233.20
2022-08-21T05:00:31.762Z,97234.94
2022-08-21T05:03:02.176Z,97237.54
2022-08-21T05:05:30.383Z,97240.71
2022-08-21T05:08:00.028Z,97240.98
2022-08-21T05:10:28.396Z,97243.77
2022-08-21T05:12:56.720Z,97246.23
2022-08-21T05:15:24.783Z,97252.48
2022-08-21T05:18:00.983Z,97254.81
2022-08-21T05:20:30.338Z,97256.45
2022-08-21T05:22:58.851Z,97259.81
2022-08-21T05:25:27.385Z,97261.64
2022-08-21T05:27:58.095Z,97270.33
2022-08-21T05:30:28.877Z,97275.48
2022-08-21T05:32:58.136Z,97283.96
2022-08-21T05:35:26.741Z,97281.13
2022-08-21T05:37:54.507Z,97281.66
2022-08-21T05:40:23.460Z,97288.42
2022-08-21T05:42:54.844Z,97292.02
2022-08-21T05:45:41.351Z,97302.91
2022-08-21T05:48:13.563Z,97311.28
2022-08-21T05:50:42.105Z,97316.95
2022-08-21T05:53:11.208Z,97317.00
2022-08-21T05:55:44.887Z,97316.08
2022-08-21T05:58:18.926Z,97321.06
2022-08-21T06:00:48.577Z,97320.02
2022-08-21T06:03:27.519Z,97322.94
2022-08-21T06:05:56.726Z,97322.68
2022-08-21T06:08:24.870Z,97322.34
2022-08-21T06:10:53.788Z,97316.08
2022-08-21T06:13:22.978Z,97307.05
2022-08-21T06:15:51.551Z,97307.44
2022-08-21T06:18:19.463Z,97313.23
2022-08-21T06:20:47.550Z,97317.46
2022-08-21T06:23:15.814Z,97315.23
2022-08-21T06:25:43.796Z,97308.89
2022-08-21T06:28:11.631Z,97300.98
2022-08-21T06:30:40.377Z,97297.73
2022-08-21T06:33:08.520Z,97294.54
2022-08-21T06:35:36.424Z,97290.02
2022-08-21T06:38:05.225Z,97300.41
2022-08-21T06:40:34.807Z,97309.80
2022-08-21T06:43:08.683Z,97315.29
2022-08-21T06:45:37.257Z,97307.54
2022-08-21T06:48:05.444Z,97308.39
2022-08-21T06:50:33.910Z,97303.44
2022-08-21T06:53:06.688Z,97300.70
2022-08-21T06:55:34.841Z,97295.66
2022-08-21T06:58:03.267Z,97291.91
2022-08-21T07:00:31.484Z,97285.58
2022-08-21T07:02:59.822Z,97285.00
2022-08-21T07:05:29.058Z,97290.70
2022-08-21T07:07:58.407Z,97289.05
2022-08-21T07:10:27.156Z,97289.34
2022-08-21T07:13:00.426Z,97290.70
2022-08-21T07:15:30.254Z,97293.44
2022-08-21T07:17:59.470Z,97288.70
2022-08-21T07:20:28.557Z,97280.61
2022-08-21T07:22:57.837Z,97272.77
2022-08-21T07:25:26.078Z,97270.74
2022-08-21T07:27:53.984Z,97266.00
2022-08-21T07:30:22.067Z,97269.79
2022-08-21T07:32:50.686Z,97274.33
2022-08-21T07:35:19.413Z,97269.02
2022-08-21T07:37:48.404Z,97262.20
2022-08-21T07:40:18.236Z,97261.23
2022-08-21T07:42:51.176Z,97263.13
2022-08-21T07:45:20.963Z,97261.43
2022-08-21T07:47:51.929Z,97260.66
2022-08-21T07:50:22.191Z,97257.48
2022-08-21T07:52:49.981Z,97259.33
2022-08-21T07:55:19.215Z,97261.55
2022-08-21T07:57:47.863Z,97268.84
2022-08-21T08:00:17.250Z,97271.00
2022-08-21T08:02:46.731Z,97270.80
2022-08-21T08:05:14.505Z,97267.17
2022-08-21T08:07:42.506Z,97265.58
2022-08-21T08:10:11.464Z,97263.83
2022-08-21T08:12:40.682Z,97265.35
2022-08-21T08:15:10.071Z,97266.74
2022-08-21T08:17:39.400Z,97261.16
2022-08-21T08:20:08.973Z,97264.02
2022-08-21T08:22:38.402Z,97262.29
2022-08-21T08:25:09.418Z,97263.11
2022-08-21T08:27:38.614Z,97260.09
2022-08-21T08:30:07.629Z,97260.10
2022-08-21T08:32:37.722Z,97256.81
2022-08-21T08:35:06.157Z,97255.92
2022-08-21T08:37:34.785Z,97257.31
2022-08-21T08:40:04.596Z,97258.52
2022-08-21T08:42:35.002Z,97257.33
2022-08-21T08:45:05.291Z,97259.87
2022-08-21T08:47:36.520Z,97264.59
2022-08-21T08:50:07.679Z,97264.13
2022-08-21T08:52:37.960Z,97260.16
2022-08-21T08:55:09.722Z,97258.78
2022-08-21T08:57:38.408Z,97258.07
2022-08-21T09:00:10.516Z,97259.64
2022-08-21T09:02:42.339Z,97257.18
2022-08-21T09:05:39.272Z,97248.73
2022-08-21T09:08:18.944Z,97248.98
2022-08-21T09:10:52.541Z,97249.38
2022-08-21T09:13:24.726Z,97247.73
2022-08-21T09:16:01.645Z,97242.91
2022-08-21T09:18:48.430Z,97238.45
2022-08-21T09:21:26.295Z,97235.39
2022-08-21T09:23:57.488Z,97222.61
2022-08-21T09:26:27.781Z,97216.41
2022-08-21T09:28:57.591Z,97209.89
2022-08-21T09:31:30.403Z,97204.11
2022-08-21T09:33:59.114Z,97193.32
2022-08-21T09:36:31.365Z,97191.73
2022-08-21T09:38:59.272Z,97194.29
2022-08-21T09:41:29.166Z,97197.71
2022-08-21T09:43:57.063Z,97195.19
2022-08-21T09:46:26.603Z,97195.58
2022-08-21T09:48:56.991Z,97192.88
2022-08-21T09:51:30.759Z,97193.92
2022-08-21T09:54:01.636Z,97196.17
2022-08-21T09:56:50.904Z,97190.65
2022-08-21T09:59:39.024Z,97190.16
2022-08-21T10:02:25.532Z,97183.44
2022-08-21T10:04:55.271Z,97179.89
2022-08-21T10:07:24.140Z,97176.07
2022-08-21T10:10:10.735Z,97168.93
2022-08-21T10:12:56.579Z,97167.08
2022-08-21T10:15:36.823Z,97167.30
2022-08-21T10:18:18.799Z,97166.98
2022-08-21T10:20:46.664Z,97166.09
2022-08-21T10:23:26.747Z,97170.17
2022-08-21T10:26:14.104Z,97168.52
2022-08-21T10:28:42.453Z,97164.09
2022-08-21T10:31:13.103Z,97162.85
2022-08-21T10:34:01.950Z,97161.52
2022-08-21T10:36:46.345Z,97162.95
2022-08-21T10:39:35.170Z,97164.14
2022-08-21T10:42:28.093Z,97165.37
2022-08-21T10:45:16.720Z,97162.52
2022-08-21T10:47:49.062Z,97161.42
2022-08-21T10:50:43.308Z,97161.42
2022-08-21T10:53:20.371Z,97161.73
2022-08-21T10:55:57.613Z,97159.36
2022-08-21T10:58:34.574Z,97152.52
2022-08-21T11:01:11.102Z,97152.65
2022-08-21T11:04:02.476Z,97147.64
2022-08-21T11:06:33.955Z,97143.46
2022-08-21T11:09:13.948Z,97142.23
2022-08-21T11:11:59.172Z,97135.88
2022-08-21T11:14:53.311Z,97139.06
2022-08-21T11:17:25.498Z,97140.38
2022-08-21T11:19:57.598Z,97140.80
2022-08-21T11:22:29.771Z,97132.73
2022-08-21T11:25:00.605Z,97128.77
2022-08-21T11:27:39.830Z,97128.38
2022-08-21T11:30:08.673Z,97127.54
2022-08-21T11:32:42.631Z,97126.65
2022-08-21T11:35:25.805Z,97127.16
2022-08-21T11:38:20.681Z,97128.81
2022-08-21T11:40:57.344Z,97125.54
2022-08-21T11:43:25.134Z,97121.50
2022-08-21T11:45:55.471Z,97117.38
2022-08-21T11:48:50.111Z,97114.27
2022-08-21T11:51:23.628Z,97114.08
2022-08-21T11:54:07.312Z,97107.40
2022-08-21T11:56:43.697Z,97105.02
2022-08-21T11:59:41.044Z,97104.85
2022-08-21T12:02:13.800Z,97102.80
2022-08-21T12:04:50.783Z,97104.92
2022-08-21T12:07:29.880Z,97104.23
2022-08-21T12:09:59.075Z,97102.11
2022-08-21T12:12:29.926Z,97098.97
2022-08-21T12:15:17.144Z,97093.20
2022-08-21T12:17:56.410Z,97086.76
2022-08-21T12:20:30.287Z,97081.30
2022-08-21T12:23:03.632Z,97082.27
2022-08-21T12:25:39.239Z,97077.77
2022-08-21T12:28:11.736Z,97075.26
2022-08-21T12:30:43.215Z,97070.83
2022-08-21T12:33:29.876Z,97066.85
2022-08-21T12:36:16.264Z,97064.73
2022-08-21T12:38:46.035Z,97067.56
2022-08-21T12:41:18.877Z,97069.99
2022-08-21T12:43:49.810Z,97065.23
2022-08-21T12:46:19.782Z,97061.23
2022-08-21T12:48:50.772Z,97058.40
2022-08-21T12:51:23.240Z,97054.56
2022-08-21T12:53:56.123Z,97051.70
2022-08-21T12:56:25.813Z,97046.92
2022-08-21T12:58:58.864Z,97050.61
2022-08-21T13:01:29.968Z,97053.80
2022-08-21T13:04:04.475Z,97056.86
2022-08-21T13:06:38.497Z,97049.42
2022-08-21T13:09:07.697Z,97050.92
2022-08-21T13:11:36.221Z,97046.20
2022-08-21T13:14:05.326Z,97040.60
2022-08-21T13:16:33.459Z,97040.84
2022-08-21T13:19:06.751Z,97046.04
2022-08-21T13:21:36.576Z,97045.27
2022-08-21T13:24:41.116Z,97041.42
2022-08-21T13:27:21.413Z,97035.14
2022-08-21T13:29:54.014Z,97028.27
2022-08-21T13:32:26.649Z,97029.19
2022-08-21T13:34:54.588Z,97028.30
2022-08-21T13:37:24.295Z,97030.02
2022-08-21T13:39:55.307Z,97034.23
2022-08-21T13:42:25.226Z,97040.33
2022-08-21T13:44:54.688Z,97043.66
2022-08-21T13:47:22.560Z,97048.62
2022-08-21T13:49:55.896Z,97046.92
2022-08-21T13:52:28.225Z,97052.98
2022-08-21T13:55:00.332Z,97050.04
2022-08-21T13:57:29.927Z,97038.09
2022-08-21T14:00:13.587Z,97028.08
2022-08-21T14:02:43.317Z,97024.89
2022-08-21T14:05:21.965Z,97026.15
2022-08-21T14:07:51.266Z,97026.29
2022-08-21T14:10:22.290Z,97031.14
2022-08-21T14:12:58.885Z,97037.21
2022-08-21T14:15:29.595Z,97045.29
2022-08-21T14:18:18.372Z,97048.85
2022-08-21T14:20:46.552Z,97040.23
2022-08-21T14:23:24.677Z,97041.78
2022-08-21T14:25:53.329Z,97042.41
2022-08-21T14:28:28.868Z,97040.29
2022-08-21T14:30:57.266Z,97039.92
2022-08-21T14:33:34.343Z,97041.29
2022-08-21T14:36:03.121Z,97041.15
2022-08-21T14:38:31.516Z,97040.18
2022-08-21T14:41:01.656Z,97027.35
2022-08-21T14:43:29.838Z,97004.64
2022-08-21T14:45:58.131Z,97003.36
2022-08-21T14:48:26.056Z,97010.61
2022-08-21T14:50:59.747Z,97020.63
2022-08-21T14:53:28.680Z,97019.63
2022-08-21T14:56:05.912Z,97016.42
2022-08-21T14:58:38.812Z,97008.67
2022-08-21T15:01:08.097Z,96986.33
2022-08-21T15:03:36.191Z,96979.99
2022-08-21T15:06:05.147Z,96987.52
2022-08-21T15:08:33.894Z,97008.48
2022-08-21T15:11:41.127Z,97023.63
2022-08-21T15:13:54.175Z,97022.52
2022-08-21T15:16:22.270Z,97020.88
2022-08-21T15:18:50.696Z,97015.82
2022-08-21T15:21:18.490Z,96999.81
2022-08-21T15:23:46.478Z,96979.33
2022-08-21T15:26:14.791Z,96968.83
2022-08-21T15:28:43.292Z,96966.34
2022-08-21T15:31:11.056Z,96971.05
2022-08-21T15:33:38.832Z,96979.64
2022-08-21T15:36:06.817Z,96996.26
2022-08-21T15:38:34.583Z,97007.30
2022-08-21T15:41:03.865Z,97014.52
2022-08-21T15:43:36.439Z,97019.57
2022-08-21T15:46:06.137Z,97020.56
2022-08-21T15:48:33.939Z,97021.95
2022-08-21T15:51:01.766Z,97015.91
2022-08-21T15:53:29.744Z,97017.80
2022-08-21T15:55:57.980Z,97022.05
2022-08-21T15:58:25.933Z,97031.98
2022-08-21T16:00:54.240Z,97040.80
2022-08-21T16:03:23.044Z,97040.61
2022-08-21T16:05:53.392Z,97047.95
2022-08-21T16:08:21.669Z,97044.14
2022-08-21T16:10:50.169Z,97048.66
2022-08-21T16:13:24.774Z,97051.15
2022-08-21T16:15:53.263Z,97057.56
2022-08-21T16:18:23.419Z,97059.66
2022-08-21T16:20:51.355Z,97062.60
2022-08-21T16:23:19.349Z,97068.75
2022-08-21T16:25:47.908Z,97071.04
2022-08-21T16:28:18.180Z,97070.29
2022-08-21T16:30:48.050Z,97068.92
2022-08-21T16:33:34.700Z,97072.20
2022-08-21T16:36:06.097Z,97069.86
2022-08-21T16:38:35.301Z,97072.73
2022-08-21T16:41:07.885Z,97074.14
2022-08-21T16:43:36.198Z,97069.59
2022-08-21T16:46:04.039Z,97065.02
2022-08-21T16:48:31.795Z,97066.35
2022-08-21T16:50:59.560Z,97071.13
2022-08-21T16:53:27.318Z,97072.88
2022-08-21T16:55:55.314Z,97078.09
2022-08-21T16:58:30.541Z,97076.32
2022-08-21T17:00:59.019Z,97079.46
2022-08-21T17:03:30.875Z,97078.77
2022-08-21T17:05:58.806Z,97075.80
2022-08-21T17:08:27.095Z,97075.17
2022-08-21T17:10:55.067Z,97080.03
2022-08-21T17:13:23.258Z,97084.30
2022-08-21T17:15:51.336Z,97084.00
2022-08-21T17:18:22.210Z,97084.43
2022-08-21T17:20:50.288Z,97082.73
2022-08-21T17:23:18.490Z,97079.52
2022-08-21T17:25:48.429Z,97078.59
2022-08-21T17:28:21.786Z,97077.55
2022-08-21T17:30:49.868Z,97076.80
2022-08-21T17:33:20.697Z,97080.67
2022-08-21T17:35:48.910Z,97083.17
2022-08-21T17:38:16.718Z,97086.78
2022-08-21T17:40:46.868Z,97086.56
2022-08-21T17:43:15.583Z,97089.69
2022-08-21T17:45:45.295Z,97093.05
2022-08-21T17:48:13.418Z,97099.86
2022-08-21T17:50:41.440Z,97103.28
2022-08-21T17:53:10.428Z,97107.76
2022-08-21T17:55:38.419Z,97109.98
2022-08-21T17:58:08.595Z,97109.35
2022-08-21T18:00:36.971Z,97112.14
2022-08-21T18:03:09.037Z,97118.34
2022-08-21T18:05:37.085Z,97125.05
2022-08-21T18:08:04.900Z,97135.05
2022-08-21T18:10:32.850Z,97137.39
2022-08-21T18:13:03.078Z,97139.48
2022-08-21T18:15:31.235Z,97136.02
2022-08-21T18:17:59.597Z,97138.52
2022-08-21T18:20:28.428Z,97131.52
2022-08-21T18:22:56.283Z,97129.35
2022-08-21T18:25:24.363Z,97138.09
2022-08-21T18:27:52.991Z,97144.95
2022-08-21T18:30:22.781Z,97145.63
2022-08-21T18:32:52.198Z,97146.44
2022-08-21T18:35:20.104Z,97146.98
2022-08-21T18:37:47.884Z,97145.49
2022-08-21T18:40:15.960Z,97142.75
2022-08-21T18:42:53.061Z,97139.55
2022-08-21T18:45:26.244Z,97142.09
2022-08-21T18:47:55.396Z,97140.90
2022-08-21T18:50:25.188Z,97146.91
2022-08-21T18:52:54.486Z,97151.00
2022-08-21T18:55:24.623Z,97149.02
2022-08-21T18:57:54.378Z,97145.84
2022-08-21T19:00:24.443Z,97147.34
2022-08-21T19:02:52.903Z,97143.52
2022-08-21T19:08:13.224Z,97137.05
2022-08-21T19:10:43.188Z,97135.85
2022-08-21T19:13:15.022Z,97132.73
2022-08-21T19:15:43.625Z,97126.88
2022-08-21T19:18:13.528Z,97125.00
2022-08-21T19:20:43.476Z,97123.36
2022-08-21T19:23:16.021Z,97119.88
2022-08-21T19:25:46.056Z,97120.36
2022-08-21T19:28:25.383Z,97122.71
2022-08-21T19:30:56.336Z,97121.57
2022-08-21T19:33:44.277Z,97120.45
2022-08-21T19:36:12.873Z,97116.91
2022-08-21T19:38:41.160Z,97117.73
2022-08-21T19:41:10.443Z,97113.77
2022-08-21T19:43:41.527Z,97113.39
2022-08-21T19:46:09.614Z,97114.84
2022-08-21T19:48:38.380Z,97115.70
2022-08-21T19:51:08.758Z,97120.88
2022-08-21T19:53:36.787Z,97121.96
2022-08-21T19:56:05.512Z,97123.52
2022-08-21T19:58:36.041Z,97124.82
2022-08-21T20:01:16.566Z,97124.83
2022-08-21T20:06:35.032Z,97129.96
2022-08-21T20:09:03.912Z,97132.80
2022-08-21T20:11:38.634Z,97133.55
2022-08-21T20:14:07.551Z,97130.27
2022-08-21T20:16:35.680Z,97129.83
2022-08-21T20:19:05.421Z,97133.11
2022-08-21T20:21:44.054Z,97133.47
2022-08-21T20:24:14.759Z,97136.06
2022-08-21T20:29:36.222Z,97131.69
2022-08-21T20:32:12.221Z,97130.63
2022-08-21T20:34:41.084Z,97128.88
2022-08-21T20:37:12.969Z,97125.38
2022-08-21T20:39:41.106Z,97128.17
2022-08-21T20:42:10.600Z,97129.75
2022-08-21T20:44:46.526Z,97124.83
2022-08-21T20:47:16.099Z,97122.69
2022-08-21T20:49:51.526Z,97123.16
2022-08-21T20:55:12.839Z,97123.87
2022-08-21T20:57:52.794Z,97117.28
2022-08-21T21:00:23.159Z,97119.83
2022-08-21T21:03:06.550Z,97118.78
2022-08-21T21:05:39.523Z,97118.75
2022-08-21T21:08:21.377Z,97122.17
2022-08-21T21:10:52.300Z,97123.56
2022-08-21T21:13:24.053Z,97122.09
2022-08-21T21:15:55.664Z,97120.17
2022-08-21T21:18:26.058Z,97117.86
2022-08-21T21:21:15.412Z,97116.73
2022-08-21T21:23:43.318Z,97115.35
2022-08-21T21:26:29.643Z,97114.10
2022-08-21T21:29:15.152Z,97111.09
2022-08-21T21:31:43.466Z,97105.84
2022-08-21T21:34:17.211Z,97111.88
2022-08-21T21:36:51.496Z,97113.54
2022-08-21T21:39:24.731Z,97114.09
2022-08-21T21:41:57.708Z,97110.85
2022-08-21T21:44:33.250Z,97110.91
2022-08-21T21:47:08.479Z,97106.36
2022-08-21T21:49:36.419Z,97105.05
2022-08-21T21:52:30.268Z,97109.89
2022-08-21T21:55:18.329Z,97109.48
2022-08-21T21:58:16.964Z,97104.41
2022-08-21T22:00:52.373Z,97102.61
2022-08-21T22:03:44.642Z,97101.64
2022-08-21T22:06:23.328Z,97105.11
2022-08-21T22:08:57.813Z,97105.54
2022-08-21T22:11:32.072Z,97106.93
2022-08-21T22:14:02.810Z,97106.54
2022-08-21T22:16:31.655Z,97108.81
2022-08-21T22:19:07.675Z,97109.17
2022-08-21T22:21:45.464Z,97103.48
2022-08-21T22:24:16.370Z,97102.61
2022-08-21T22:26:48.535Z,97101.38
2022-08-21T22:29:18.400Z,97102.45
2022-08-21T22:32:04.792Z,97102.04
2022-08-21T22:34:33.186Z,97104.45
2022-08-21T22:37:02.979Z,97106.38
2022-08-21T22:39:39.557Z,97104.88
2022-08-21T22:45:04.832Z,97104.20
2022-08-21T22:47:42.688Z,97101.41
2022-08-21T22:50:27.161Z,97106.77
2022-08-21T22:52:57.498Z,97106.06
2022-08-21T22:55:37.692Z,97107.08
2022-08-21T22:58:08.456Z,97107.33
2022-08-21T23:00:42.438Z,97108.53
2022-08-21T23:03:17.427Z,97103.55
2022-08-21T23:05:45.360Z,97099.33
2022-08-21T23:08:24.281Z,97103.16
2022-08-21T23:11:11.545Z,97108.08
2022-08-21T23:13:41.921Z,97110.63
2022-08-21T23:16:18.833Z,97108.27
2022-08-21T23:18:55.504Z,97113.95
2022-08-21T23:21:43.805Z,97113.56
2022-08-21T23:24:30.099Z,97114.52
2022-08-21T23:27:01.093Z,97121.63
2022-08-21T23:29:34.863Z,97119.29
2022-08-21T23:32:05.281Z,97127.83
2022-08-21T23:34:33.040Z,97129.05
2022-08-21T23:37:25.444Z,97132.31
2022-08-21T23:40:32.414Z,97134.15
2022-08-21T23:43:05.637Z,97135.23
2022-08-21T23:48:51.944Z,97135.69
2022-08-21T23:51:33.902Z,97135.23
2022-08-21T23:54:17.328Z,97135.56
2022-08-21T23:56:45.321Z,97138.95
2022-08-21T23:59:32.708Z,97135.30
